sensor_id;sensor_type;location;lat;lon;timestamp;pressure;altitude;pressure_sealevel;temperature;humidity
20987;BME280;10652;50.306;8.570;2023-03-15T00:01:32;97524.47;;;1.73;85.06
20987;BME280;10652;50.306;8.570;2023-03-15T00:05:34;97529.81;;;1.67;85.03
20987;BME280;10652;50.306;8.570;2023-03-15T00:09:36;97542.06;;;1.58;85.03
20987;BME280;10652;50.306;8.570;2023-03-15T00:13:38;97545.63;;;1.50;84.72
20987;BME280;10652;50.306;8.570;2023-03-15T00:17:40;97542.41;;;1.40;84.91
20987;BME280;10652;50.306;8.570;2023-03-15T00:21:42;97545.09;;;1.34;84.55
20987;BME280;10652;50.306;8.570;2023-03-15T00:25:46;97553.75;;;1.32;84.48
20987;BME280;10652;50.306;8.570;2023-03-15T00:29:48;97557.38;;;1.23;84.00
20987;BME280;10652;50.306;8.570;2023-03-15T00:33:51;97557.50;;;1.16;84.21
20987;BME280;10652;50.306;8.570;2023-03-15T00:37:59;97550.75;;;1.08;84.24
20987;BME280;10652;50.306;8.570;2023-03-15T00:42:01;97550.84;;;1.02;84.24
20987;BME280;10652;50.306;8.570;2023-03-15T00:46:05;97558.69;;;0.96;83.75
20987;BME280;10652;50.306;8.570;2023-03-15T00:50:08;97562.22;;;0.91;83.52
20987;BME280;10652;50.306;8.570;2023-03-15T00:54:10;97574.34;;;0.89;84.08
20987;BME280;10652;50.306;8.570;2023-03-15T00:58:14;97581.25;;;0.88;84.40
20987;BME280;10652;50.306;8.570;2023-03-15T01:02:16;97570.91;;;0.87;84.61
20987;BME280;10652;50.306;8.570;2023-03-15T01:06:22;97578.91;;;0.73;84.18
20987;BME280;10652;50.306;8.570;2023-03-15T01:10:25;97580.75;;;0.66;85.29
20987;BME280;10652;50.306;8.570;2023-03-15T01:14:28;97589.44;;;0.62;85.77
20987;BME280;10652;50.306;8.570;2023-03-15T01:18:32;97586.88;;;0.59;86.28
20987;BME280;10652;50.306;8.570;2023-03-15T01:22:34;97588.63;;;0.57;86.25
20987;BME280;10652;50.306;8.570;2023-03-15T01:26:36;97596.53;;;0.48;86.11
20987;BME280;10652;50.306;8.570;2023-03-15T01:30:38;97590.50;;;0.46;85.95
20987;BME280;10652;50.306;8.570;2023-03-15T01:34:40;97588.88;;;0.41;86.00
20987;BME280;10652;50.306;8.570;2023-03-15T01:38:44;97592.28;;;0.44;86.31
20987;BME280;10652;50.306;8.570;2023-03-15T01:47:12;97593.09;;;0.46;85.95
20987;BME280;10652;50.306;8.570;2023-03-15T01:55:26;97613.88;;;0.39;86.52
20987;BME280;10652;50.306;8.570;2023-03-15T01:59:56;97612.22;;;0.36;86.54
20987;BME280;10652;50.306;8.570;2023-03-15T02:04:07;97613.03;;;0.38;86.60
20987;BME280;10652;50.306;8.570;2023-03-15T02:08:16;97611.31;;;0.37;86.23
20987;BME280;10652;50.306;8.570;2023-03-15T02:12:20;97602.75;;;0.35;86.08
20987;BME280;10652;50.306;8.570;2023-03-15T02:16:23;97600.22;;;0.31;86.39
20987;BME280;10652;50.306;8.570;2023-03-15T02:20:39;97607.13;;;0.29;86.66
20987;BME280;10652;50.306;8.570;2023-03-15T02:24:54;97610.63;;;0.26;86.53
20987;BME280;10652;50.306;8.570;2023-03-15T02:28:58;97611.44;;;0.28;86.76
20987;BME280;10652;50.306;8.570;2023-03-15T02:33:04;97613.09;;;0.32;86.65
20987;BME280;10652;50.306;8.570;2023-03-15T02:37:08;97619.97;;;0.36;86.33
20987;BME280;10652;50.306;8.570;2023-03-15T02:41:11;97614.78;;;0.36;85.97
20987;BME280;10652;50.306;8.570;2023-03-15T02:45:13;97613.06;;;0.35;85.96
20987;BME280;10652;50.306;8.570;2023-03-15T02:49:16;97614.81;;;0.33;85.74
20987;BME280;10652;50.306;8.570;2023-03-15T02:53:19;97625.13;;;0.33;86.04
20987;BME280;10652;50.306;8.570;2023-03-15T02:57:21;97630.28;;;0.36;86.01
20987;BME280;10652;50.306;8.570;2023-03-15T03:01:24;97626.72;;;0.45;86.75
20987;BME280;10652;50.306;8.570;2023-03-15T03:05:26;97631.78;;;0.52;86.13
20987;BME280;10652;50.306;8.570;2023-03-15T03:09:28;97624.88;;;0.54;86.36
20987;BME280;10652;50.306;8.570;2023-03-15T03:13:31;97636.03;;;0.55;86.04
20987;BME280;10652;50.306;8.570;2023-03-15T03:17:36;97636.88;;;0.57;86.18
20987;BME280;10652;50.306;8.570;2023-03-15T03:21:40;97648.88;;;0.62;86.52
20987;BME280;10652;50.306;8.570;2023-03-15T03:25:45;97647.16;;;0.61;86.21
20987;BME280;10652;50.306;8.570;2023-03-15T03:29:47;97653.19;;;0.62;86.70
20987;BME280;10652;50.306;8.570;2023-03-15T03:33:51;97658.41;;;0.57;86.85
20987;BME280;10652;50.306;8.570;2023-03-15T03:37:54;97665.34;;;0.54;86.95
20987;BME280;10652;50.306;8.570;2023-03-15T03:42:02;97671.28;;;0.60;87.50
20987;BME280;10652;50.306;8.570;2023-03-15T03:46:05;97673.78;;;0.65;87.37
20987;BME280;10652;50.306;8.570;2023-03-15T03:50:11;97674.59;;;0.72;87.48
20987;BME280;10652;50.306;8.570;2023-03-15T03:54:14;97676.25;;;0.76;87.06
20987;BME280;10652;50.306;8.570;2023-03-15T03:58:19;97678.91;;;0.69;86.31
20987;BME280;10652;50.306;8.570;2023-03-15T04:02:29;97684.94;;;0.68;86.85
20987;BME280;10652;50.306;8.570;2023-03-15T04:06:40;97687.50;;;0.72;87.30
20987;BME280;10652;50.306;8.570;2023-03-15T04:10:52;97690.03;;;0.73;86.81
20987;BME280;10652;50.306;8.570;2023-03-15T04:14:56;97700.31;;;0.78;86.80
20987;BME280;10652;50.306;8.570;2023-03-15T04:19:02;97697.78;;;0.76;86.17
20987;BME280;10652;50.306;8.570;2023-03-15T04:23:07;97699.50;;;0.76;85.91
20987;BME280;10652;50.306;8.570;2023-03-15T04:27:21;97701.22;;;0.75;86.22
20987;BME280;10652;50.306;8.570;2023-03-15T04:31:40;97696.88;;;0.79;86.26
20987;BME280;10652;50.306;8.570;2023-03-15T04:35:55;97701.22;;;0.75;85.67
20987;BME280;10652;50.306;8.570;2023-03-15T04:40:22;97712.56;;;0.65;85.54
20987;BME280;10652;50.306;8.570;2023-03-15T04:44:43;97721.28;;;0.58;86.49
20987;BME280;10652;50.306;8.570;2023-03-15T04:49:02;97719.56;;;0.58;87.06
20987;BME280;10652;50.306;8.570;2023-03-15T04:53:24;97719.47;;;0.64;87.50
20987;BME280;10652;50.306;8.570;2023-03-15T04:57:58;97705.53;;;0.76;87.65
20987;BME280;10652;50.306;8.570;2023-03-15T05:02:03;97724.44;;;0.80;87.23
20987;BME280;10652;50.306;8.570;2023-03-15T05:06:15;97727.75;;;0.88;87.86
20987;BME280;10652;50.306;8.570;2023-03-15T05:10:39;97724.13;;;1.01;87.67
20987;BME280;10652;50.306;8.570;2023-03-15T05:15:02;97727.38;;;1.15;87.42
20987;BME280;10652;50.306;8.570;2023-03-15T05:19:04;97720.34;;;1.23;87.49
20987;BME280;10652;50.306;8.570;2023-03-15T05:23:14;97734.03;;;1.31;87.42
20987;BME280;10652;50.306;8.570;2023-03-15T05:27:23;97732.22;;;1.36;87.47
20987;BME280;10652;50.306;8.570;2023-03-15T05:31:37;97734.78;;;1.39;89.57
20987;BME280;10652;50.306;8.570;2023-03-15T05:35:58;97735.63;;;1.40;91.12
20987;BME280;10652;50.306;8.570;2023-03-15T05:40:10;97727.88;;;1.40;91.81
20987;BME280;10652;50.306;8.570;2023-03-15T05:44:21;97731.41;;;1.34;92.99
20987;BME280;10652;50.306;8.570;2023-03-15T05:48:39;97734.13;;;1.25;94.86
20987;BME280;10652;50.306;8.570;2023-03-15T05:52:58;97741.09;;;1.20;97.03
20987;BME280;10652;50.306;8.570;2023-03-15T05:57:35;97736.78;;;1.19;98.78
20987;BME280;10652;50.306;8.570;2023-03-15T06:01:57;97752.28;;;1.22;98.99
20987;BME280;10652;50.306;8.570;2023-03-15T06:06:05;97752.22;;;1.25;100.00
20987;BME280;10652;50.306;8.570;2023-03-15T06:10:12;97759.91;;;1.31;100.00
20987;BME280;10652;50.306;8.570;2023-03-15T06:14:15;97771.03;;;1.36;99.88
20987;BME280;10652;50.306;8.570;2023-03-15T06:18:22;97770.88;;;1.47;100.00
20987;BME280;10652;50.306;8.570;2023-03-15T06:22:25;97768.13;;;1.57;100.00
20987;BME280;10652;50.306;8.570;2023-03-15T06:26:32;97773.25;;;1.61;98.61
20987;BME280;10652;50.306;8.570;2023-03-15T06:30:37;97779.44;;;1.50;96.44
20987;BME280;10652;50.306;8.570;2023-03-15T06:34:40;97781.16;;;1.50;96.68
20987;BME280;10652;50.306;8.570;2023-03-15T06:38:42;97785.44;;;1.54;96.85
20987;BME280;10652;50.306;8.570;2023-03-15T06:42:44;97786.25;;;1.56;96.26
20987;BME280;10652;50.306;8.570;2023-03-15T06:46:49;97794.81;;;1.61;96.31
20987;BME280;10652;50.306;8.570;2023-03-15T06:50:52;97792.06;;;1.72;96.36
20987;BME280;10652;50.306;8.570;2023-03-15T06:54:54;97800.50;;;1.83;96.55
20987;BME280;10652;50.306;8.570;2023-03-15T06:58:56;97806.25;;;2.00;97.30
20987;BME280;10652;50.306;8.570;2023-03-15T07:02:58;97810.75;;;2.38;100.00
20987;BME280;10652;50.306;8.570;2023-03-15T07:07:00;97812.53;;;2.36;95.53
20987;BME280;10652;50.306;8.570;2023-03-15T07:11:03;97807.00;;;2.97;99.32
20987;BME280;10652;50.306;8.570;2023-03-15T07:15:05;97809.56;;;2.99;93.87
20987;BME280;10652;50.306;8.570;2023-03-15T07:19:07;97811.69;;;3.21;91.58
20987;BME280;10652;50.306;8.570;2023-03-15T07:23:09;97817.72;;;3.22;87.85
20987;BME280;10652;50.306;8.570;2023-03-15T07:27:12;97823.97;;;3.13;88.54
20987;BME280;10652;50.306;8.570;2023-03-15T07:31:17;97841.56;;;2.99;87.39
20987;BME280;10652;50.306;8.570;2023-03-15T07:35:19;97845.66;;;2.68;87.07
20987;BME280;10652;50.306;8.570;2023-03-15T07:39:21;97849.16;;;2.64;88.86
20987;BME280;10652;50.306;8.570;2023-03-15T07:43:24;97850.75;;;2.71;89.29
20987;BME280;10652;50.306;8.570;2023-03-15T07:47:39;97850.41;;;2.89;89.68
20987;BME280;10652;50.306;8.570;2023-03-15T07:51:41;97857.81;;;3.07;89.64
20987;BME280;10652;50.306;8.570;2023-03-15T07:55:46;97863.81;;;3.09;88.13
20987;BME280;10652;50.306;8.570;2023-03-15T07:59:48;97872.59;;;3.04;86.06
20987;BME280;10652;50.306;8.570;2023-03-15T08:03:50;97876.00;;;3.07;86.99
20987;BME280;10652;50.306;8.570;2023-03-15T08:07:52;97880.25;;;3.10;85.48
20987;BME280;10652;50.306;8.570;2023-03-15T08:11:54;97894.22;;;3.04;84.16
20987;BME280;10652;50.306;8.570;2023-03-15T08:15:57;97889.34;;;3.30;85.08
20987;BME280;10652;50.306;8.570;2023-03-15T08:19:59;97884.44;;;3.58;84.36
20987;BME280;10652;50.306;8.570;2023-03-15T08:24:05;97895.94;;;3.47;83.00
20987;BME280;10652;50.306;8.570;2023-03-15T08:28:07;97908.03;;;3.48;83.55
20987;BME280;10652;50.306;8.570;2023-03-15T08:32:09;97913.84;;;3.59;82.51
20987;BME280;10652;50.306;8.570;2023-03-15T08:36:12;97915.03;;;3.84;82.41
20987;BME280;10652;50.306;8.570;2023-03-15T08:40:15;97925.81;;;3.66;79.21
20987;BME280;10652;50.306;8.570;2023-03-15T08:44:19;97944.13;;;3.60;79.35
20987;BME280;10652;50.306;8.570;2023-03-15T08:48:21;97952.28;;;3.83;79.26
20987;BME280;10652;50.306;8.570;2023-03-15T08:52:24;97944.22;;;4.34;78.66
20987;BME280;10652;50.306;8.570;2023-03-15T08:56:26;97959.69;;;4.40;76.83
20987;BME280;10652;50.306;8.570;2023-03-15T09:00:28;97965.72;;;4.03;76.09
20987;BME280;10652;50.306;8.570;2023-03-15T09:04:30;97975.75;;;3.78;79.09
20987;BME280;10652;50.306;8.570;2023-03-15T09:08:32;97983.94;;;3.59;79.30
20987;BME280;10652;50.306;8.570;2023-03-15T09:12:35;97982.53;;;3.44;81.80
20987;BME280;10652;50.306;8.570;2023-03-15T09:16:37;97981.81;;;3.36;82.12
20987;BME280;10652;50.306;8.570;2023-03-15T09:20:39;97996.66;;;3.29;83.36
20987;BME280;10652;50.306;8.570;2023-03-15T09:24:42;98001.25;;;3.60;84.36
20987;BME280;10652;50.306;8.570;2023-03-15T09:28:44;98008.78;;;3.73;83.86
20987;BME280;10652;50.306;8.570;2023-03-15T09:32:46;98000.06;;;4.17;83.96
20987;BME280;10652;50.306;8.570;2023-03-15T09:36:48;98004.44;;;4.54;82.09
20987;BME280;10652;50.306;8.570;2023-03-15T09:41:00;98016.75;;;4.46;79.42
20987;BME280;10652;50.306;8.570;2023-03-15T09:45:13;98007.59;;;4.66;81.59
20987;BME280;10652;50.306;8.570;2023-03-15T09:49:36;98018.59;;;5.11;80.29
20987;BME280;10652;50.306;8.570;2023-03-15T09:53:59;98032.06;;;5.27;77.75
20987;BME280;10652;50.306;8.570;2023-03-15T09:58:10;98038.16;;;4.92;74.83
20987;BME280;10652;50.306;8.570;2023-03-15T10:02:29;98033.63;;;4.65;74.54
20987;BME280;10652;50.306;8.570;2023-03-15T10:06:32;98037.97;;;4.28;75.30
20987;BME280;10652;50.306;8.570;2023-03-15T10:10:45;98045.56;;;4.37;76.70
20987;BME280;10652;50.306;8.570;2023-03-15T10:15:05;98044.81;;;4.68;74.71
20987;BME280;10652;50.306;8.570;2023-03-15T10:19:33;98047.59;;;4.98;73.21
20987;BME280;10652;50.306;8.570;2023-03-15T10:23:52;98049.88;;;5.10;71.58
20987;BME280;10652;50.306;8.570;2023-03-15T10:28:04;98045.06;;;5.29;71.83
20987;BME280;10652;50.306;8.570;2023-03-15T10:32:18;98041.66;;;5.27;70.77
20987;BME280;10652;50.306;8.570;2023-03-15T10:36:23;98039.50;;;5.08;71.53
20987;BME280;10652;50.306;8.570;2023-03-15T10:44:50;98040.69;;;5.62;72.06
20987;BME280;10652;50.306;8.570;2023-03-15T10:49:07;98036.66;;;6.12;68.11
20987;BME280;10652;50.306;8.570;2023-03-15T10:53:10;98039.69;;;5.67;64.20
20987;BME280;10652;50.306;8.570;2023-03-15T10:57:13;98034.88;;;5.52;63.95
20987;BME280;10652;50.306;8.570;2023-03-15T11:01:28;98040.19;;;5.49;64.85
20987;BME280;10652;50.306;8.570;2023-03-15T11:05:40;98053.63;;;5.32;64.93
20987;BME280;10652;50.306;8.570;2023-03-15T11:09:51;98052.38;;;5.47;64.51
20987;BME280;10652;50.306;8.570;2023-03-15T11:13:58;98059.75;;;5.94;63.03
20987;BME280;10652;50.306;8.570;2023-03-15T11:18:01;98066.50;;;6.01;62.40
20987;BME280;10652;50.306;8.570;2023-03-15T11:22:03;98075.97;;;5.73;58.54
20987;BME280;10652;50.306;8.570;2023-03-15T11:26:12;98076.56;;;5.52;59.16
20987;BME280;10652;50.306;8.570;2023-03-15T11:30:32;98083.66;;;5.47;58.60
20987;BME280;10652;50.306;8.570;2023-03-15T11:34:49;98085.44;;;5.45;59.19
20987;BME280;10652;50.306;8.570;2023-03-15T11:38:54;98087.09;;;5.47;56.04
20987;BME280;10652;50.306;8.570;2023-03-15T11:43:00;98080.16;;;5.48;58.19
20987;BME280;10652;50.306;8.570;2023-03-15T11:47:12;98089.19;;;5.67;58.26
20987;BME280;10652;50.306;8.570;2023-03-15T11:51:17;98090.34;;;5.88;58.41
20987;BME280;10652;50.306;8.570;2023-03-15T11:55:24;98094.28;;;6.02;56.09
20987;BME280;10652;50.306;8.570;2023-03-15T12:03:39;98097.94;;;5.95;55.16
20987;BME280;10652;50.306;8.570;2023-03-15T12:07:57;98097.94;;;5.95;55.37
20987;BME280;10652;50.306;8.570;2023-03-15T12:12:01;98104.00;;;5.97;55.51
20987;BME280;10652;50.306;8.570;2023-03-15T12:16:05;98106.94;;;6.76;66.91
20987;BME280;10652;50.306;8.570;2023-03-15T12:24:24;98104.72;;;7.45;54.79
20987;BME280;10652;50.306;8.570;2023-03-15T12:32:47;98123.22;;;7.88;50.35
20987;BME280;10652;50.306;8.570;2023-03-15T12:36:54;98116.56;;;7.79;50.44
20987;BME280;10652;50.306;8.570;2023-03-15T12:40:57;98110.59;;;7.76;50.37
20987;BME280;10652;50.306;8.570;2023-03-15T12:45:41;98114.47;;;7.64;50.72
20987;BME280;10652;50.306;8.570;2023-03-15T12:49:44;98107.56;;;7.37;50.85
20987;BME280;10652;50.306;8.570;2023-03-15T12:53:48;98111.88;;;7.38;51.83
20987;BME280;10652;50.306;8.570;2023-03-15T12:57:51;98116.41;;;7.33;49.74
20987;BME280;10652;50.306;8.570;2023-03-15T13:01:57;98113.50;;;7.16;48.13
20987;BME280;10652;50.306;8.570;2023-03-15T13:06:25;98117.59;;;6.97;48.84
20987;BME280;10652;50.306;8.570;2023-03-15T13:15:02;98120.63;;;6.24;50.24
20987;BME280;10652;50.306;8.570;2023-03-15T13:19:16;98124.69;;;6.03;51.76
20987;BME280;10652;50.306;8.570;2023-03-15T13:23:29;98126.47;;;5.69;52.38
20987;BME280;10652;50.306;8.570;2023-03-15T13:27:44;98117.22;;;5.24;53.29
20987;BME280;10652;50.306;8.570;2023-03-15T13:32:00;98115.50;;;5.23;53.66
20987;BME280;10652;50.306;8.570;2023-03-15T13:36:14;98125.69;;;5.32;53.70
20987;BME280;10652;50.306;8.570;2023-03-15T13:40:17;98124.56;;;5.43;53.72
20987;BME280;10652;50.306;8.570;2023-03-15T13:44:21;98113.84;;;5.86;51.34
20987;BME280;10652;50.306;8.570;2023-03-15T13:48:29;98126.69;;;6.25;49.92
20987;BME280;10652;50.306;8.570;2023-03-15T13:52:32;98112.06;;;6.50;49.04
20987;BME280;10652;50.306;8.570;2023-03-15T13:56:37;98120.06;;;6.73;49.14
20987;BME280;10652;50.306;8.570;2023-03-15T14:00:59;98117.97;;;6.84;49.11
20987;BME280;10652;50.306;8.570;2023-03-15T14:05:06;98119.72;;;7.38;51.57
20987;BME280;10652;50.306;8.570;2023-03-15T14:09:17;98117.94;;;7.40;46.97
20987;BME280;10652;50.306;8.570;2023-03-15T14:13:34;98125.16;;;7.04;47.19
20987;BME280;10652;50.306;8.570;2023-03-15T14:17:36;98117.22;;;6.81;47.49
20987;BME280;10652;50.306;8.570;2023-03-15T14:21:38;98128.78;;;6.72;46.88
20987;BME280;10652;50.306;8.570;2023-03-15T14:25:41;98125.34;;;6.72;47.54
20987;BME280;10652;50.306;8.570;2023-03-15T14:29:55;98127.84;;;6.75;46.26
20987;BME280;10652;50.306;8.570;2023-03-15T14:34:08;98131.44;;;6.41;45.24
20987;BME280;10652;50.306;8.570;2023-03-15T14:38:18;98129.78;;;6.08;46.25
20987;BME280;10652;50.306;8.570;2023-03-15T14:42:22;98138.28;;;5.82;46.35
20987;BME280;10652;50.306;8.570;2023-03-15T14:46:24;98137.78;;;5.36;47.30
20987;BME280;10652;50.306;8.570;2023-03-15T14:50:28;98145.13;;;5.19;48.50
20987;BME280;10652;50.306;8.570;2023-03-15T14:54:32;98150.53;;;5.11;48.83
20987;BME280;10652;50.306;8.570;2023-03-15T14:58:35;98145.25;;;5.14;48.48
20987;BME280;10652;50.306;8.570;2023-03-15T15:02:37;98156.38;;;5.21;48.10
20987;BME280;10652;50.306;8.570;2023-03-15T15:06:39;98148.88;;;5.08;47.76
20987;BME280;10652;50.306;8.570;2023-03-15T15:10:55;98154.06;;;5.08;48.12
20987;BME280;10652;50.306;8.570;2023-03-15T15:14:57;98158.97;;;5.21;47.56
20987;BME280;10652;50.306;8.570;2023-03-15T15:18:59;98160.75;;;5.19;47.72
20987;BME280;10652;50.306;8.570;2023-03-15T15:23:02;98159.88;;;5.20;47.75
20987;BME280;10652;50.306;8.570;2023-03-15T15:27:04;98164.78;;;5.32;48.01
20987;BME280;10652;50.306;8.570;2023-03-15T15:31:06;98162.13;;;5.35;47.59
20987;BME280;10652;50.306;8.570;2023-03-15T15:35:08;98165.53;;;5.37;48.26
20987;BME280;10652;50.306;8.570;2023-03-15T15:39:25;98169.50;;;5.51;48.54
20987;BME280;10652;50.306;8.570;2023-03-15T15:43:28;98180.66;;;5.56;48.63
20987;BME280;10652;50.306;8.570;2023-03-15T15:47:33;98179.84;;;5.54;48.33
20987;BME280;10652;50.306;8.570;2023-03-15T15:51:38;98187.00;;;5.46;47.99
20987;BME280;10652;50.306;8.570;2023-03-15T15:55:43;98181.03;;;5.41;47.87
20987;BME280;10652;50.306;8.570;2023-03-15T15:59:45;98189.03;;;5.34;48.13
20987;BME280;10652;50.306;8.570;2023-03-15T16:03:47;98197.69;;;5.36;48.17
20987;BME280;10652;50.306;8.570;2023-03-15T16:07:50;98187.31;;;5.33;47.51
20987;BME280;10652;50.306;8.570;2023-03-15T16:11:53;98199.81;;;5.19;47.61
20987;BME280;10652;50.306;8.570;2023-03-15T16:15:55;98194.81;;;5.09;48.08
20987;BME280;10652;50.306;8.570;2023-03-15T16:19:57;98195.72;;;5.08;48.67
20987;BME280;10652;50.306;8.570;2023-03-15T16:24:04;98199.22;;;5.07;48.50
20987;BME280;10652;50.306;8.570;2023-03-15T16:28:09;98192.63;;;4.91;48.74
20987;BME280;10652;50.306;8.570;2023-03-15T16:32:14;98197.16;;;4.82;49.02
20987;BME280;10652;50.306;8.570;2023-03-15T16:36:25;98199.94;;;4.74;49.29
20987;BME280;10652;50.306;8.570;2023-03-15T16:40:33;98205.41;;;4.62;48.94
20987;BME280;10652;50.306;8.570;2023-03-15T16:44:35;98200.44;;;4.51;49.13
20987;BME280;10652;50.306;8.570;2023-03-15T16:48:38;98200.63;;;4.41;48.16
20987;BME280;10652;50.306;8.570;2023-03-15T16:52:41;98210.34;;;4.33;49.57
20987;BME280;10652;50.306;8.570;2023-03-15T16:56:43;98209.63;;;4.26;49.85
20987;BME280;10652;50.306;8.570;2023-03-15T17:00:46;98209.75;;;4.18;49.66
20987;BME280;10652;50.306;8.570;2023-03-15T17:04:49;98218.56;;;4.11;49.71
20987;BME280;10652;50.306;8.570;2023-03-15T17:09:00;98216.13;;;4.04;50.18
20987;BME280;10652;50.306;8.570;2023-03-15T17:13:02;98217.09;;;3.95;50.53
20987;BME280;10652;50.306;8.570;2023-03-15T17:17:04;98224.16;;;3.90;52.00
20987;BME280;10652;50.306;8.570;2023-03-15T17:21:10;98231.00;;;3.94;52.39
20987;BME280;10652;50.306;8.570;2023-03-15T17:25:14;98243.22;;;3.89;52.47
20987;BME280;10652;50.306;8.570;2023-03-15T17:29:17;98236.41;;;3.80;52.34
20987;BME280;10652;50.306;8.570;2023-03-15T17:33:19;98239.19;;;3.68;53.21
20987;BME280;10652;50.306;8.570;2023-03-15T17:37:21;98248.78;;;3.65;53.89
20987;BME280;10652;50.306;8.570;2023-03-15T17:41:26;98258.50;;;3.54;53.78
20987;BME280;10652;50.306;8.570;2023-03-15T17:45:31;98257.84;;;3.40;53.42
20987;BME280;10652;50.306;8.570;2023-03-15T17:49:34;98257.22;;;3.24;53.83
20987;BME280;10652;50.306;8.570;2023-03-15T17:53:36;98254.75;;;3.16;55.22
20987;BME280;10652;50.306;8.570;2023-03-15T17:57:38;98259.13;;;3.13;55.33
20987;BME280;10652;50.306;8.570;2023-03-15T18:01:46;98260.94;;;3.06;55.50
20987;BME280;10652;50.306;8.570;2023-03-15T18:05:49;98260.25;;;2.95;56.36
20987;BME280;10652;50.306;8.570;2023-03-15T18:09:51;98258.59;;;2.88;56.24
20987;BME280;10652;50.306;8.570;2023-03-15T18:13:54;98272.53;;;2.81;56.49
20987;BME280;10652;50.306;8.570;2023-03-15T18:17:56;98276.94;;;2.73;57.16
20987;BME280;10652;50.306;8.570;2023-03-15T18:21:58;98280.50;;;2.64;57.83
20987;BME280;10652;50.306;8.570;2023-03-15T18:26:00;98286.75;;;2.46;58.46
20987;BME280;10652;50.306;8.570;2023-03-15T18:30:03;98297.31;;;2.31;59.71
20987;BME280;10652;50.306;8.570;2023-03-15T18:34:05;98306.03;;;2.21;60.86
20987;BME280;10652;50.306;8.570;2023-03-15T18:38:07;98308.78;;;2.03;61.42
20987;BME280;10652;50.306;8.570;2023-03-15T18:42:10;98309.75;;;1.94;62.28
20987;BME280;10652;50.306;8.570;2023-03-15T18:46:12;98308.13;;;1.80;62.51
20987;BME280;10652;50.306;8.570;2023-03-15T18:50:15;98312.47;;;1.75;62.97
20987;BME280;10652;50.306;8.570;2023-03-15T18:54:18;98313.38;;;1.71;63.32
20987;BME280;10652;50.306;8.570;2023-03-15T18:58:20;98320.34;;;1.63;63.74
20987;BME280;10652;50.306;8.570;2023-03-15T19:02:23;98319.53;;;1.56;64.40
20987;BME280;10652;50.306;8.570;2023-03-15T19:06:25;98333.44;;;1.37;64.40
20987;BME280;10652;50.306;8.570;2023-03-15T19:10:27;98327.59;;;1.06;64.93
20987;BME280;10652;50.306;8.570;2023-03-15T19:14:29;98335.34;;;1.04;66.49
20987;BME280;10652;50.306;8.570;2023-03-15T19:18:31;98340.53;;;1.00;67.05
20987;BME280;10652;50.306;8.570;2023-03-15T19:22:33;98337.09;;;1.02;67.72
20987;BME280;10652;50.306;8.570;2023-03-15T19:26:35;98342.28;;;1.04;69.19
20987;BME280;10652;50.306;8.570;2023-03-15T19:30:38;98344.84;;;1.08;68.66
20987;BME280;10652;50.306;8.570;2023-03-15T19:34:40;98344.84;;;1.04;68.97
20987;BME280;10652;50.306;8.570;2023-03-15T19:38:42;98346.59;;;0.96;69.79
20987;BME280;10652;50.306;8.570;2023-03-15T19:42:45;98350.16;;;0.71;69.03
20987;BME280;10652;50.306;8.570;2023-03-15T19:46:48;98349.31;;;0.55;70.22
20987;BME280;10652;50.306;8.570;2023-03-15T19:50:50;98367.44;;;0.47;71.47
20987;BME280;10652;50.306;8.570;2023-03-15T19:54:52;98370.00;;;0.47;72.30
20987;BME280;10652;50.306;8.570;2023-03-15T19:58:54;98360.56;;;0.43;71.61
20987;BME280;10652;50.306;8.570;2023-03-15T20:02:57;98366.59;;;0.35;71.92
20987;BME280;10652;50.306;8.570;2023-03-15T20:06:59;98373.50;;;0.25;72.06
20987;BME280;10652;50.306;8.570;2023-03-15T20:11:02;98372.66;;;0.08;72.40
20987;BME280;10652;50.306;8.570;2023-03-15T20:15:05;98372.66;;;-0.03;73.42
20987;BME280;10652;50.306;8.570;2023-03-15T20:19:07;98373.50;;;-0.04;73.56
20987;BME280;10652;50.306;8.570;2023-03-15T20:23:09;98373.50;;;-0.04;74.24
20987;BME280;10652;50.306;8.570;2023-03-15T20:27:12;98370.94;;;-0.02;74.69
20987;BME280;10652;50.306;8.570;2023-03-15T20:31:16;98374.38;;;0.01;74.84
20987;BME280;10652;50.306;8.570;2023-03-15T20:35:18;98385.56;;;-0.01;75.18
20987;BME280;10652;50.306;8.570;2023-03-15T20:39:20;98381.25;;;0.07;75.90
20987;BME280;10652;50.306;8.570;2023-03-15T20:43:26;98381.25;;;0.07;75.63
20987;BME280;10652;50.306;8.570;2023-03-15T20:47:28;98384.72;;;0.04;76.34
20987;BME280;10652;50.306;8.570;2023-03-15T20:51:31;98387.28;;;-0.05;76.97
20987;BME280;10652;50.306;8.570;2023-03-15T20:55:33;98395.88;;;-0.04;77.42
20987;BME280;10652;50.306;8.570;2023-03-15T20:59:35;98398.47;;;-0.03;76.83
20987;BME280;10652;50.306;8.570;2023-03-15T21:03:37;98402.78;;;-0.11;77.46
20987;BME280;10652;50.306;8.570;2023-03-15T21:07:39;98402.78;;;-0.11;78.49
20987;BME280;10652;50.306;8.570;2023-03-15T21:11:42;98409.63;;;-0.22;78.04
20987;BME280;10652;50.306;8.570;2023-03-15T21:15:45;98404.44;;;-0.42;77.66
20987;BME280;10652;50.306;8.570;2023-03-15T21:19:47;98406.19;;;-0.38;78.96
20987;BME280;10652;50.306;8.570;2023-03-15T21:23:49;98401.88;;;-0.33;79.85
20987;BME280;10652;50.306;8.570;2023-03-15T21:27:51;98400.13;;;-0.40;78.02
20987;BME280;10652;50.306;8.570;2023-03-15T21:31:53;98394.09;;;-0.55;77.26
20987;BME280;10652;50.306;8.570;2023-03-15T21:35:56;98399.25;;;-0.60;78.28
20987;BME280;10652;50.306;8.570;2023-03-15T21:39:59;98402.69;;;-0.64;78.50
20987;BME280;10652;50.306;8.570;2023-03-15T21:44:02;98406.09;;;-0.63;78.98
20987;BME280;10652;50.306;8.570;2023-03-15T21:48:05;98407.81;;;-0.62;78.96
20987;BME280;10652;50.306;8.570;2023-03-15T21:52:07;98401.78;;;-0.66;79.14
20987;BME280;10652;50.306;8.570;2023-03-15T21:56:09;98400.88;;;-0.82;79.00
20987;BME280;10652;50.306;8.570;2023-03-15T22:00:14;98403.34;;;-1.04;79.82
20987;BME280;10652;50.306;8.570;2023-03-15T22:04:17;98400.84;;;-0.97;81.12
20987;BME280;10652;50.306;8.570;2023-03-15T22:08:19;98389.69;;;-0.88;81.37
20987;BME280;10652;50.306;8.570;2023-03-15T22:12:22;98393.16;;;-0.77;81.33
20987;BME280;10652;50.306;8.570;2023-03-15T22:16:26;98394.03;;;-0.75;80.99
20987;BME280;10652;50.306;8.570;2023-03-15T22:20:28;98381.06;;;-0.90;79.54
20987;BME280;10652;50.306;8.570;2023-03-15T22:24:31;98381.03;;;-1.02;80.46
20987;BME280;10652;50.306;8.570;2023-03-15T22:28:34;98383.63;;;-0.95;80.92